Kenilworth, NJ

3:00 PM EST on January 27, 2015 (GMT -0500)
Morristown Municipal | Change Station
CLOSE
Current Station
Airport
Location: Morristown,
Elevation: 187 ft
Nearby Weather Stations
Active Advisory: Winter Weather Advisory Active Notice: Public Information Statement

Elev 187 ft 40.80 °N, 74.42 °W | Updated 15 minutes ago

Partly Cloudy
Partly Cloudy
28 °F
Feels Like 19 °F
N
10
Wind Variable Wind from North
Gusts 21 mph

Today
High -- | Low -- °F
--% Chance of Precip.
Yesterday
High -- | Low -- °F
Precip. -- in
7:11 AM 5:08 PM
First Quarter, 57% visible
Pressure 29.68 in
Visibility 15.0 miles
Clouds Few 5000 ft
Mostly Cloudy 25000 ft
Windchill 19 °F
Dew Point 18 °F
Humidity 64%
Rainfall 0.00 in
Snow Depth Not available.
UV 1 out of 12
Pollen .10 out of 12
Air Quality Not available.
Flu Activity Not available.
METAR KMMU 271945Z 35009G18KT 15SM FEW050 BKN250 M02/M08 A2968

More Conditions Fewer Conditions

Pressure 29.68 in
Visibility 15.0 miles
Clouds Few 5000 ft
Mostly Cloudy 25000 ft
Windchill 19 °F
Dew Point 18 °F
Humidity 64%
Rainfall 0.00 in
Snow Depth Not available.
UV 1 out of 12
Pollen .10 out of 12
Air Quality Not available.
Flu Activity Not available.
METAR KMMU 271945Z 35009G18KT 15SM FEW050 BKN250 M02/M08 A2968

More Conditions Fewer Conditions

10-Day Weather Forecast

Almanac

Astronomy

Jan. 27, 2015 Rise Set
Actual Time
Civil Twilight
Nautical Twilight
Astronomical Twilight
Moon
Length of Visible Light
Length of Day
Tomorrow will be .
, % of the Moon is Illuminated

Today's Extremes

State Highs State Lows

Community

WunderPhotos

Upload Photos

1,790,874 photos uploaded!

WunderBlogs® & News

Nearby

Air Quality

  Air Quality AQ Index Pollutant
Not available.

Snow Depth

Station Depth Elevation

Earthquake Activity

City Distance Mag. Time & Date
Minimum magnitude displayed is 2.5.

Coastal Water Temperatures

Place Temperature

Nearby Weather Stations